SHT3018 EGLL-LSZH
Flight info
| Callsign | SHT3018 |
|---|---|
| Flight time | 1h 23m |
| Altitude | 29000 |
| Route | DET L6 DVR UL9 KONAN DCT KOK DCT SISGA DCT RITAX DCT KRH M150 LAMGO/N0437F270 T721 SUL/N0424F250 T721 RILAX |
| Aircraft | A320/M-SDE3FGHIRWY/LB1 |
Departure
| Time | 2026-04-26 06:56 |
|---|---|
| Airport | London Heathrow Airport (EGLL) |
Arrival
| Time | 2026-04-26 08:20 |
|---|---|
| Airport | Zürich Airport (LSZH) |
| Time | Latitude | Longitude | Altitude | Speed | Heading |
|---|---|---|---|---|---|
| 2026-04-26 06:22 | 51.46984 | -0.47720 | 92 ft | 0 kts | 90° |
| 2026-04-26 06:46 | 51.46984 | -0.47747 | 91 ft | 4 kts | 92° |
| 2026-04-26 06:46 | 51.46986 | -0.47791 | 91 ft | 4 kts | 97° |
| 2026-04-26 06:46 | 51.46991 | -0.47833 | 90 ft | 4 kts | 111° |
| 2026-04-26 06:46 | 51.47004 | -0.47865 | 90 ft | 4 kts | 158° |
| 2026-04-26 06:47 | 51.47015 | -0.47870 | 90 ft | 1 kts | 181° |
| 2026-04-26 06:47 | 51.47016 | -0.47870 | 90 ft | 0 kts | 181° |
| 2026-04-26 06:50 | 51.47014 | -0.47870 | 90 ft | 1 kts | 181° |
| 2026-04-26 06:51 | 51.46994 | -0.47870 | 92 ft | 4 kts | 181° |
| 2026-04-26 06:51 | 51.46906 | -0.47870 | 89 ft | 9 kts | 180° |
| 2026-04-26 06:51 | 51.46842 | -0.47869 | 89 ft | 9 kts | 180° |
| 2026-04-26 06:52 | 51.46784 | -0.47872 | 89 ft | 8 kts | 187° |
| 2026-04-26 06:52 | 51.46747 | -0.47946 | 91 ft | 10 kts | 260° |
| 2026-04-26 06:52 | 51.46744 | -0.48071 | 90 ft | 12 kts | 269° |
| 2026-04-26 06:52 | 51.46731 | -0.48179 | 95 ft | 9 kts | 237° |
| 2026-04-26 06:53 | 51.46676 | -0.48214 | 94 ft | 10 kts | 182° |
| 2026-04-26 06:53 | 51.46612 | -0.48215 | 93 ft | 7 kts | 180° |
| 2026-04-26 06:53 | 51.46603 | -0.48215 | 93 ft | 0 kts | 179° |
| 2026-04-26 06:54 | 51.46595 | -0.48215 | 93 ft | 3 kts | 180° |
| 2026-04-26 06:54 | 51.46580 | -0.48215 | 93 ft | 4 kts | 181° |
| 2026-04-26 06:54 | 51.46545 | -0.48215 | 93 ft | 6 kts | 179° |
| 2026-04-26 06:54 | 51.46499 | -0.48201 | 95 ft | 7 kts | 151° |
| 2026-04-26 06:55 | 51.46478 | -0.48105 | 91 ft | 12 kts | 89° |
| 2026-04-26 06:55 | 51.46479 | -0.48046 | 90 ft | 0 kts | 89° |
| 2026-04-26 06:55 | 51.46480 | -0.47901 | 90 ft | 44 kts | 90° |
| 2026-04-26 06:55 | 51.46483 | -0.47055 | 91 ft | 104 kts | 89° |
| 2026-04-26 06:56 | 51.46489 | -0.45634 | 90 ft | 148 kts | 89° |
| 2026-04-26 06:56 | 51.46483 | -0.43960 | 629 ft | 147 kts | 90° |
| 2026-04-26 06:56 | 51.46500 | -0.42298 | 1240 ft | 151 kts | 91° |
| 2026-04-26 06:56 | 51.46312 | -0.40514 | 1448 ft | 181 kts | 117° |
| 2026-04-26 06:57 | 51.45471 | -0.38788 | 1638 ft | 212 kts | 131° |
| 2026-04-26 06:57 | 51.44435 | -0.36907 | 1992 ft | 238 kts | 127° |
| 2026-04-26 06:57 | 51.43553 | -0.34574 | 2572 ft | 254 kts | 114° |
| 2026-04-26 06:57 | 51.42959 | -0.31914 | 3578 ft | 253 kts | 105° |
| 2026-04-26 06:58 | 51.42550 | -0.29144 | 4480 ft | 257 kts | 101° |
| 2026-04-26 06:58 | 51.42222 | -0.26312 | 5357 ft | 260 kts | 100° |
| 2026-04-26 06:58 | 51.41930 | -0.23407 | 5820 ft | 267 kts | 99° |
| 2026-04-26 06:58 | 51.41638 | -0.20464 | 5919 ft | 267 kts | 100° |
| 2026-04-26 06:59 | 51.41315 | -0.17531 | 6016 ft | 268 kts | 101° |
| 2026-04-26 06:59 | 51.40938 | -0.14598 | 6119 ft | 271 kts | 102° |
| 2026-04-26 06:59 | 51.40526 | -0.11625 | 6316 ft | 273 kts | 103° |
| 2026-04-26 06:59 | 51.40106 | -0.08668 | 6326 ft | 272 kts | 103° |
| 2026-04-26 07:00 | 51.39689 | -0.05731 | 6323 ft | 271 kts | 103° |
| 2026-04-26 07:00 | 51.39271 | -0.02785 | 6326 ft | 271 kts | 103° |
| 2026-04-26 07:00 | 51.38854 | 0.00161 | 6327 ft | 271 kts | 103° |
| 2026-04-26 07:00 | 51.38443 | 0.03068 | 6328 ft | 272 kts | 103° |
| 2026-04-26 07:01 | 51.38029 | 0.06013 | 6330 ft | 272 kts | 103° |
| 2026-04-26 07:01 | 51.37615 | 0.08966 | 6329 ft | 271 kts | 103° |
| 2026-04-26 07:01 | 51.37201 | 0.11906 | 6327 ft | 271 kts | 103° |
| 2026-04-26 07:01 | 51.36786 | 0.14869 | 6328 ft | 272 kts | 102° |
| 2026-04-26 07:02 | 51.36375 | 0.17817 | 6329 ft | 272 kts | 103° |
| 2026-04-26 07:02 | 51.35962 | 0.20769 | 6331 ft | 272 kts | 103° |
| 2026-04-26 07:02 | 51.35548 | 0.23720 | 6329 ft | 271 kts | 103° |
| 2026-04-26 07:02 | 51.35132 | 0.26666 | 6326 ft | 271 kts | 103° |
| 2026-04-26 07:03 | 51.34715 | 0.29614 | 6324 ft | 272 kts | 103° |
| 2026-04-26 07:03 | 51.34296 | 0.32561 | 6325 ft | 272 kts | 103° |
| 2026-04-26 07:03 | 51.33874 | 0.35504 | 6334 ft | 271 kts | 103° |
| 2026-04-26 07:03 | 51.33452 | 0.38443 | 6329 ft | 272 kts | 103° |
| 2026-04-26 07:04 | 51.33036 | 0.41348 | 6324 ft | 271 kts | 103° |
| 2026-04-26 07:04 | 51.32613 | 0.44289 | 6260 ft | 271 kts | 103° |
| 2026-04-26 07:04 | 51.32191 | 0.47223 | 6264 ft | 271 kts | 103° |
| 2026-04-26 07:04 | 51.31766 | 0.50157 | 6264 ft | 271 kts | 103° |
| 2026-04-26 07:05 | 51.31341 | 0.53100 | 6268 ft | 271 kts | 103° |
| 2026-04-26 07:05 | 51.30911 | 0.56082 | 6265 ft | 272 kts | 103° |
| 2026-04-26 07:05 | 51.30496 | 0.58988 | 6268 ft | 272 kts | 103° |
| 2026-04-26 07:05 | 51.30033 | 0.61940 | 6610 ft | 276 kts | 105° |
| 2026-04-26 07:06 | 51.29507 | 0.64896 | 7471 ft | 278 kts | 106° |
| 2026-04-26 07:06 | 51.28954 | 0.67877 | 8294 ft | 281 kts | 106° |
| 2026-04-26 07:06 | 51.28388 | 0.70890 | 9102 ft | 285 kts | 106° |
| 2026-04-26 07:06 | 51.27817 | 0.73941 | 9901 ft | 289 kts | 106° |
| 2026-04-26 07:07 | 51.27240 | 0.77038 | 10594 ft | 295 kts | 106° |
| 2026-04-26 07:07 | 51.26634 | 0.80303 | 10818 ft | 318 kts | 106° |
| 2026-04-26 07:07 | 51.25987 | 0.83814 | 10972 ft | 341 kts | 106° |
| 2026-04-26 07:07 | 51.25299 | 0.87553 | 11278 ft | 357 kts | 106° |
| 2026-04-26 07:08 | 51.24591 | 0.91392 | 11819 ft | 363 kts | 106° |
| 2026-04-26 07:08 | 51.23872 | 0.95287 | 12441 ft | 368 kts | 106° |
| 2026-04-26 07:08 | 51.23143 | 0.99219 | 13078 ft | 372 kts | 106° |
| 2026-04-26 07:08 | 51.22403 | 1.03202 | 13653 ft | 377 kts | 107° |
| 2026-04-26 07:09 | 51.21647 | 1.07243 | 14232 ft | 382 kts | 107° |
| 2026-04-26 07:09 | 51.20892 | 1.11268 | 14772 ft | 386 kts | 107° |
| 2026-04-26 07:09 | 51.20123 | 1.15383 | 15333 ft | 389 kts | 107° |
| 2026-04-26 07:09 | 51.19345 | 1.19533 | 15831 ft | 393 kts | 107° |
| 2026-04-26 07:10 | 51.16961 | 1.32196 | 17439 ft | 402 kts | 106° |
| 2026-04-26 07:11 | 51.16020 | 1.41034 | 18490 ft | 409 kts | 93° |
| 2026-04-26 07:11 | 51.15816 | 1.45574 | 18996 ft | 412 kts | 93° |
| 2026-04-26 07:11 | 51.15602 | 1.50136 | 19487 ft | 414 kts | 93° |
| 2026-04-26 07:11 | 51.15381 | 1.54677 | 19971 ft | 418 kts | 94° |
| 2026-04-26 07:12 | 51.15149 | 1.59306 | 20450 ft | 421 kts | 94° |
| 2026-04-26 07:12 | 51.14913 | 1.63970 | 20913 ft | 424 kts | 94° |
| 2026-04-26 07:12 | 51.14677 | 1.68656 | 21355 ft | 427 kts | 94° |
| 2026-04-26 07:12 | 51.14440 | 1.73390 | 21787 ft | 430 kts | 94° |
| 2026-04-26 07:13 | 51.14201 | 1.78152 | 22216 ft | 433 kts | 94° |
| 2026-04-26 07:13 | 51.13959 | 1.82956 | 22632 ft | 436 kts | 94° |
| 2026-04-26 07:13 | 51.13713 | 1.87783 | 23067 ft | 439 kts | 94° |
| 2026-04-26 07:13 | 51.13461 | 1.92635 | 23471 ft | 442 kts | 93° |
| 2026-04-26 07:14 | 51.13204 | 1.97536 | 23856 ft | 446 kts | 93° |
| 2026-04-26 07:14 | 51.12944 | 2.02467 | 24197 ft | 448 kts | 93° |
| 2026-04-26 07:14 | 51.12681 | 2.07431 | 24537 ft | 451 kts | 93° |
| 2026-04-26 07:14 | 51.12416 | 2.12409 | 24878 ft | 453 kts | 93° |
| 2026-04-26 07:15 | 51.12147 | 2.17413 | 25213 ft | 455 kts | 94° |
| 2026-04-26 07:15 | 51.11875 | 2.22448 | 25546 ft | 457 kts | 94° |
| 2026-04-26 07:15 | 51.11601 | 2.27506 | 25872 ft | 459 kts | 94° |
| 2026-04-26 07:15 | 51.11323 | 2.32577 | 26215 ft | 461 kts | 94° |
| 2026-04-26 07:16 | 51.11039 | 2.37683 | 26559 ft | 464 kts | 93° |
| 2026-04-26 07:16 | 51.10753 | 2.42802 | 26908 ft | 466 kts | 93° |
| 2026-04-26 07:16 | 51.10463 | 2.47940 | 27246 ft | 468 kts | 93° |
| 2026-04-26 07:16 | 51.10170 | 2.53042 | 27574 ft | 470 kts | 93° |
| 2026-04-26 07:17 | 51.09871 | 2.58232 | 27908 ft | 472 kts | 94° |
| 2026-04-26 07:17 | 51.09331 | 2.63371 | 28359 ft | 473 kts | 102° |
| 2026-04-26 07:17 | 51.08319 | 2.68348 | 28833 ft | 473 kts | 111° |
| 2026-04-26 07:17 | 51.06881 | 2.73051 | 29229 ft | 474 kts | 117° |
| 2026-04-26 07:18 | 51.05336 | 2.77691 | 29327 ft | 477 kts | 117° |
| 2026-04-26 07:18 | 51.02230 | 2.87027 | 29328 ft | 479 kts | 116° |
| 2026-04-26 07:19 | 50.99108 | 2.96397 | 29329 ft | 480 kts | 116° |
| 2026-04-26 07:19 | 50.95970 | 3.05760 | 29325 ft | 480 kts | 117° |
| 2026-04-26 07:20 | 50.92831 | 3.15097 | 29324 ft | 480 kts | 117° |
| 2026-04-26 07:20 | 50.89685 | 3.24430 | 29325 ft | 480 kts | 117° |
| 2026-04-26 07:21 | 50.86535 | 3.33755 | 29344 ft | 480 kts | 117° |
| 2026-04-26 07:21 | 50.83381 | 3.43036 | 29346 ft | 478 kts | 117° |
| 2026-04-26 07:22 | 50.80245 | 3.52240 | 29329 ft | 478 kts | 117° |
| 2026-04-26 07:22 | 50.77086 | 3.61477 | 29330 ft | 478 kts | 117° |
| 2026-04-26 07:23 | 50.73915 | 3.70705 | 29330 ft | 478 kts | 117° |
| 2026-04-26 07:23 | 50.70728 | 3.79931 | 29352 ft | 477 kts | 118° |
| 2026-04-26 07:24 | 50.67560 | 3.89103 | 29352 ft | 474 kts | 118° |
| 2026-04-26 07:24 | 50.64401 | 3.98214 | 29345 ft | 473 kts | 118° |
| 2026-04-26 07:25 | 50.61244 | 4.07310 | 29332 ft | 472 kts | 117° |
| 2026-04-26 07:25 | 50.58364 | 4.16585 | 29323 ft | 471 kts | 114° |
| 2026-04-26 07:26 | 50.55671 | 4.26001 | 29299 ft | 472 kts | 113° |
| 2026-04-26 07:26 | 50.52934 | 4.35386 | 29293 ft | 472 kts | 114° |
| 2026-04-26 07:27 | 50.50110 | 4.44724 | 29294 ft | 473 kts | 115° |
| 2026-04-26 07:27 | 50.47276 | 4.53982 | 29298 ft | 473 kts | 115° |
| 2026-04-26 07:28 | 50.44432 | 4.63300 | 29314 ft | 473 kts | 115° |
| 2026-04-26 07:28 | 50.41598 | 4.72583 | 29328 ft | 471 kts | 115° |
| 2026-04-26 07:29 | 50.38759 | 4.81843 | 29324 ft | 470 kts | 115° |
| 2026-04-26 07:29 | 50.35926 | 4.91062 | 29319 ft | 469 kts | 115° |
| 2026-04-26 07:30 | 50.33087 | 5.00262 | 29309 ft | 469 kts | 115° |
| 2026-04-26 07:30 | 50.30257 | 5.09385 | 29305 ft | 469 kts | 116° |
| 2026-04-26 07:31 | 50.27399 | 5.18565 | 29309 ft | 468 kts | 116° |
| 2026-04-26 07:31 | 50.24545 | 5.27698 | 29307 ft | 467 kts | 116° |
| 2026-04-26 07:32 | 50.21688 | 5.36811 | 29302 ft | 467 kts | 116° |
| 2026-04-26 07:32 | 50.18823 | 5.45911 | 29294 ft | 467 kts | 116° |
| 2026-04-26 07:33 | 50.15962 | 5.54982 | 29299 ft | 467 kts | 116° |
| 2026-04-26 07:33 | 50.13097 | 5.64007 | 29296 ft | 466 kts | 116° |
| 2026-04-26 07:34 | 50.10212 | 5.73061 | 29286 ft | 466 kts | 116° |
| 2026-04-26 07:34 | 50.07310 | 5.82076 | 29279 ft | 466 kts | 118° |
| 2026-04-26 07:35 | 50.04152 | 5.90875 | 29273 ft | 466 kts | 121° |
| 2026-04-26 07:35 | 50.00826 | 5.99532 | 29278 ft | 466 kts | 122° |
| 2026-04-26 07:36 | 49.97526 | 6.08188 | 29273 ft | 466 kts | 121° |
| 2026-04-26 07:36 | 49.94264 | 6.16893 | 29273 ft | 466 kts | 121° |
| 2026-04-26 07:37 | 49.91008 | 6.25583 | 29269 ft | 466 kts | 121° |
| 2026-04-26 07:37 | 49.87746 | 6.34262 | 29270 ft | 466 kts | 121° |
| 2026-04-26 07:38 | 49.84466 | 6.42924 | 29261 ft | 466 kts | 121° |
| 2026-04-26 07:38 | 49.81177 | 6.51572 | 29259 ft | 466 kts | 121° |
| 2026-04-26 07:39 | 49.77900 | 6.60141 | 29244 ft | 465 kts | 121° |
| 2026-04-26 07:39 | 49.74605 | 6.68767 | 29245 ft | 466 kts | 122° |
| 2026-04-26 07:40 | 49.71303 | 6.77387 | 29243 ft | 466 kts | 122° |
| 2026-04-26 07:40 | 49.68554 | 6.84539 | 29243 ft | 466 kts | 122° |
| 2026-04-26 07:41 | 49.65238 | 6.93128 | 29249 ft | 466 kts | 122° |
| 2026-04-26 07:41 | 49.61910 | 7.01717 | 29249 ft | 466 kts | 122° |
| 2026-04-26 07:42 | 49.58582 | 7.10295 | 29260 ft | 466 kts | 122° |
| 2026-04-26 07:42 | 49.55247 | 7.18857 | 29257 ft | 466 kts | 122° |
| 2026-04-26 07:43 | 49.51904 | 7.27390 | 29273 ft | 465 kts | 123° |
| 2026-04-26 07:43 | 49.48560 | 7.35926 | 29269 ft | 465 kts | 123° |
| 2026-04-26 07:44 | 49.45210 | 7.44442 | 29268 ft | 465 kts | 123° |
| 2026-04-26 07:44 | 49.41854 | 7.52943 | 29261 ft | 465 kts | 123° |
| 2026-04-26 07:45 | 49.38482 | 7.61447 | 29256 ft | 465 kts | 123° |
| 2026-04-26 07:45 | 49.35116 | 7.69917 | 29267 ft | 465 kts | 123° |
| 2026-04-26 07:46 | 49.31745 | 7.78376 | 29272 ft | 464 kts | 124° |
| 2026-04-26 07:46 | 49.28370 | 7.86812 | 29274 ft | 464 kts | 124° |
| 2026-04-26 07:47 | 49.24988 | 7.95247 | 29253 ft | 464 kts | 124° |
| 2026-04-26 07:47 | 49.21599 | 8.03661 | 29242 ft | 465 kts | 124° |
| 2026-04-26 07:48 | 49.18225 | 8.12024 | 29250 ft | 465 kts | 124° |
| 2026-04-26 07:48 | 49.14822 | 8.20425 | 29253 ft | 465 kts | 124° |
| 2026-04-26 07:49 | 49.11405 | 8.28832 | 29247 ft | 465 kts | 124° |
| 2026-04-26 07:49 | 49.07989 | 8.37231 | 29248 ft | 465 kts | 124° |
| 2026-04-26 07:50 | 49.02840 | 8.49785 | 29247 ft | 465 kts | 124° |
| 2026-04-26 07:50 | 48.99375 | 8.58103 | 29246 ft | 464 kts | 128° |
| 2026-04-26 07:51 | 48.95312 | 8.65712 | 29215 ft | 463 kts | 132° |
| 2026-04-26 07:51 | 48.93107 | 8.69249 | 28940 ft | 460 kts | 141° |
| 2026-04-26 07:51 | 48.90533 | 8.72089 | 28674 ft | 456 kts | 152° |
| 2026-04-26 07:52 | 48.87705 | 8.74114 | 28398 ft | 453 kts | 163° |
| 2026-04-26 07:52 | 48.84624 | 8.75337 | 28126 ft | 450 kts | 173° |
| 2026-04-26 07:52 | 48.81551 | 8.75689 | 27867 ft | 448 kts | 184° |
| 2026-04-26 07:52 | 48.78466 | 8.75198 | 27605 ft | 447 kts | 192° |
| 2026-04-26 07:53 | 48.75396 | 8.74349 | 27343 ft | 448 kts | 192° |
| 2026-04-26 07:53 | 48.72316 | 8.73516 | 27070 ft | 449 kts | 192° |
| 2026-04-26 07:53 | 48.69247 | 8.72701 | 26811 ft | 448 kts | 192° |
| 2026-04-26 07:53 | 48.66188 | 8.71898 | 26555 ft | 446 kts | 192° |
| 2026-04-26 07:54 | 48.63131 | 8.71097 | 26309 ft | 445 kts | 192° |
| 2026-04-26 07:54 | 48.60090 | 8.70299 | 26057 ft | 443 kts | 192° |
| 2026-04-26 07:54 | 48.57053 | 8.69497 | 25809 ft | 442 kts | 192° |
| 2026-04-26 07:54 | 48.54029 | 8.68693 | 25567 ft | 441 kts | 192° |
| 2026-04-26 07:55 | 48.51004 | 8.67887 | 25323 ft | 439 kts | 192° |
| 2026-04-26 07:55 | 48.48005 | 8.67090 | 25078 ft | 434 kts | 192° |
| 2026-04-26 07:55 | 48.45083 | 8.66319 | 24839 ft | 420 kts | 192° |
| 2026-04-26 07:55 | 48.42245 | 8.65575 | 24602 ft | 408 kts | 192° |
| 2026-04-26 07:56 | 48.39484 | 8.64852 | 24372 ft | 397 kts | 192° |
| 2026-04-26 07:56 | 48.36791 | 8.64137 | 24224 ft | 386 kts | 193° |
| 2026-04-26 07:56 | 48.34215 | 8.63389 | 24239 ft | 369 kts | 194° |
| 2026-04-26 07:56 | 48.31743 | 8.62631 | 24235 ft | 356 kts | 194° |
| 2026-04-26 07:57 | 48.29323 | 8.61876 | 24154 ft | 355 kts | 194° |
| 2026-04-26 07:57 | 48.26912 | 8.61120 | 23939 ft | 352 kts | 194° |
| 2026-04-26 07:57 | 48.24517 | 8.60377 | 23671 ft | 351 kts | 194° |
| 2026-04-26 07:57 | 48.22156 | 8.59660 | 23400 ft | 350 kts | 194° |
| 2026-04-26 07:58 | 48.19771 | 8.58944 | 23125 ft | 349 kts | 193° |
| 2026-04-26 07:58 | 48.17398 | 8.58236 | 22855 ft | 348 kts | 193° |
| 2026-04-26 07:58 | 48.15037 | 8.57529 | 22589 ft | 346 kts | 193° |
| 2026-04-26 07:58 | 48.12670 | 8.56821 | 22315 ft | 345 kts | 193° |
| 2026-04-26 07:59 | 48.10309 | 8.56117 | 22049 ft | 345 kts | 193° |
| 2026-04-26 07:59 | 48.07961 | 8.55419 | 21789 ft | 341 kts | 193° |
| 2026-04-26 07:59 | 48.05656 | 8.54738 | 21530 ft | 335 kts | 193° |
| 2026-04-26 07:59 | 48.03390 | 8.54069 | 21275 ft | 331 kts | 193° |
| 2026-04-26 08:00 | 48.01131 | 8.53404 | 21021 ft | 329 kts | 192° |
| 2026-04-26 08:00 | 47.98854 | 8.53022 | 20767 ft | 330 kts | 184° |
| 2026-04-26 08:00 | 47.96556 | 8.53156 | 20518 ft | 331 kts | 175° |
| 2026-04-26 08:00 | 47.94295 | 8.53824 | 20271 ft | 332 kts | 166° |
| 2026-04-26 08:01 | 47.92090 | 8.55020 | 20028 ft | 342 kts | 156° |
| 2026-04-26 08:01 | 47.90026 | 8.56713 | 19787 ft | 345 kts | 147° |
| 2026-04-26 08:01 | 47.88112 | 8.58891 | 19548 ft | 346 kts | 141° |
| 2026-04-26 08:01 | 47.86227 | 8.61200 | 19320 ft | 345 kts | 141° |
| 2026-04-26 08:02 | 47.84393 | 8.63431 | 19224 ft | 345 kts | 141° |
| 2026-04-26 08:02 | 47.82535 | 8.65681 | 19234 ft | 345 kts | 141° |
| 2026-04-26 08:02 | 47.80663 | 8.67941 | 19235 ft | 346 kts | 142° |
| 2026-04-26 08:02 | 47.78797 | 8.70194 | 19236 ft | 346 kts | 142° |
| 2026-04-26 08:03 | 47.76930 | 8.72448 | 19149 ft | 347 kts | 141° |
| 2026-04-26 08:03 | 47.75036 | 8.74732 | 18366 ft | 358 kts | 141° |
| 2026-04-26 08:03 | 47.73049 | 8.77127 | 17290 ft | 373 kts | 141° |
| 2026-04-26 08:03 | 47.70995 | 8.79604 | 16225 ft | 387 kts | 141° |
| 2026-04-26 08:04 | 47.68918 | 8.82109 | 15869 ft | 379 kts | 141° |
| 2026-04-26 08:04 | 47.66911 | 8.84530 | 15737 ft | 365 kts | 141° |
| 2026-04-26 08:04 | 47.64968 | 8.86873 | 15292 ft | 361 kts | 141° |
| 2026-04-26 08:04 | 47.63055 | 8.89387 | 14287 ft | 374 kts | 133° |
| 2026-04-26 08:05 | 47.61410 | 8.92453 | 13119 ft | 386 kts | 122° |
| 2026-04-26 08:05 | 47.60095 | 8.95995 | 11917 ft | 397 kts | 117° |
| 2026-04-26 08:05 | 47.58404 | 8.99251 | 11043 ft | 402 kts | 139° |
| 2026-04-26 08:05 | 47.55980 | 9.01218 | 10386 ft | 398 kts | 163° |
| 2026-04-26 08:06 | 47.53255 | 9.01591 | 9613 ft | 394 kts | 187° |
| 2026-04-26 08:06 | 47.50696 | 9.00298 | 8870 ft | 388 kts | 212° |
| 2026-04-26 08:06 | 47.48796 | 8.97584 | 8397 ft | 375 kts | 239° |
| 2026-04-26 08:06 | 47.47953 | 8.94088 | 8261 ft | 354 kts | 265° |
| 2026-04-26 08:07 | 47.48243 | 8.90616 | 8141 ft | 334 kts | 292° |
| 2026-04-26 08:07 | 47.49161 | 8.87543 | 8011 ft | 320 kts | 296° |
| 2026-04-26 08:07 | 47.50040 | 8.84692 | 7881 ft | 297 kts | 295° |
| 2026-04-26 08:07 | 47.50872 | 8.81998 | 7759 ft | 282 kts | 297° |
| 2026-04-26 08:08 | 47.51865 | 8.79512 | 7631 ft | 279 kts | 304° |
| 2026-04-26 08:08 | 47.52938 | 8.77122 | 7507 ft | 279 kts | 304° |
| 2026-04-26 08:08 | 47.54038 | 8.74767 | 7379 ft | 278 kts | 308° |
| 2026-04-26 08:08 | 47.55230 | 8.72516 | 7257 ft | 278 kts | 309° |
| 2026-04-26 08:09 | 47.56469 | 8.70320 | 7135 ft | 277 kts | 314° |
| 2026-04-26 08:09 | 47.57810 | 8.68269 | 7017 ft | 277 kts | 316° |
| 2026-04-26 08:09 | 47.59172 | 8.66240 | 6891 ft | 277 kts | 315° |
| 2026-04-26 08:09 | 47.60528 | 8.64214 | 6770 ft | 277 kts | 314° |
| 2026-04-26 08:10 | 47.61853 | 8.62146 | 6646 ft | 277 kts | 314° |
| 2026-04-26 08:10 | 47.63173 | 8.60068 | 6519 ft | 277 kts | 314° |
| 2026-04-26 08:10 | 47.64490 | 8.57983 | 6387 ft | 277 kts | 314° |
| 2026-04-26 08:10 | 47.65801 | 8.55907 | 6259 ft | 275 kts | 314° |
| 2026-04-26 08:11 | 47.67112 | 8.53832 | 6125 ft | 275 kts | 314° |
| 2026-04-26 08:11 | 47.68417 | 8.51756 | 5998 ft | 276 kts | 314° |
| 2026-04-26 08:11 | 47.69721 | 8.49668 | 5870 ft | 276 kts | 314° |
| 2026-04-26 08:11 | 47.70982 | 8.47522 | 5736 ft | 275 kts | 310° |
| 2026-04-26 08:12 | 47.72145 | 8.45312 | 5913 ft | 277 kts | 309° |
| 2026-04-26 08:12 | 47.73288 | 8.42988 | 5987 ft | 278 kts | 303° |
| 2026-04-26 08:12 | 47.74123 | 8.40410 | 5998 ft | 279 kts | 284° |
| 2026-04-26 08:12 | 47.74208 | 8.37606 | 6002 ft | 267 kts | 263° |
| 2026-04-26 08:13 | 47.73685 | 8.35038 | 5898 ft | 256 kts | 240° |
| 2026-04-26 08:13 | 47.72576 | 8.33042 | 5765 ft | 246 kts | 216° |
| 2026-04-26 08:13 | 47.71106 | 8.31882 | 5637 ft | 235 kts | 194° |
| 2026-04-26 08:13 | 47.69531 | 8.31620 | 5519 ft | 224 kts | 173° |
| 2026-04-26 08:14 | 47.68060 | 8.32167 | 5382 ft | 213 kts | 151° |
| 2026-04-26 08:14 | 47.66795 | 8.33174 | 5267 ft | 198 kts | 148° |
| 2026-04-26 08:14 | 47.65615 | 8.34125 | 5157 ft | 190 kts | 149° |
| 2026-04-26 08:14 | 47.64451 | 8.35056 | 5037 ft | 190 kts | 148° |
| 2026-04-26 08:15 | 47.63295 | 8.35981 | 4903 ft | 189 kts | 148° |
| 2026-04-26 08:15 | 47.62141 | 8.36904 | 4721 ft | 188 kts | 148° |
| 2026-04-26 08:15 | 47.60991 | 8.37826 | 4540 ft | 187 kts | 148° |
| 2026-04-26 08:15 | 47.59894 | 8.38700 | 4347 ft | 170 kts | 148° |
| 2026-04-26 08:16 | 47.58915 | 8.39478 | 4172 ft | 153 kts | 147° |
| 2026-04-26 08:16 | 47.58052 | 8.40308 | 4031 ft | 145 kts | 137° |
| 2026-04-26 08:16 | 47.57283 | 8.41260 | 3835 ft | 143 kts | 134° |
| 2026-04-26 08:16 | 47.56553 | 8.42217 | 3659 ft | 142 kts | 133° |
| 2026-04-26 08:17 | 47.55826 | 8.43191 | 3488 ft | 140 kts | 133° |
| 2026-04-26 08:17 | 47.55108 | 8.44167 | 3306 ft | 140 kts | 132° |
| 2026-04-26 08:17 | 47.54392 | 8.45144 | 3107 ft | 140 kts | 132° |
| 2026-04-26 08:17 | 47.53675 | 8.46124 | 2934 ft | 140 kts | 132° |
| 2026-04-26 08:18 | 47.52959 | 8.47105 | 2749 ft | 141 kts | 133° |
| 2026-04-26 08:18 | 47.52243 | 8.48085 | 2543 ft | 140 kts | 133° |
| 2026-04-26 08:18 | 47.51523 | 8.49071 | 2346 ft | 140 kts | 134° |
| 2026-04-26 08:18 | 47.50797 | 8.50066 | 2158 ft | 144 kts | 134° |
| 2026-04-26 08:19 | 47.50054 | 8.51082 | 1954 ft | 146 kts | 135° |
| 2026-04-26 08:19 | 47.49308 | 8.52103 | 1750 ft | 147 kts | 135° |
| 2026-04-26 08:19 | 47.48562 | 8.53128 | 1567 ft | 145 kts | 133° |
| 2026-04-26 08:19 | 47.47817 | 8.54141 | 1400 ft | 141 kts | 136° |
| 2026-04-26 08:20 | 47.47222 | 8.54955 | 1402 ft | 94 kts | 138° |
| 2026-04-26 08:20 | 47.46866 | 8.55438 | 1401 ft | 48 kts | 137° |
| 2026-04-26 08:20 | 47.46666 | 8.55649 | 1402 ft | 29 kts | 149° |
| 2026-04-26 08:20 | 47.46536 | 8.55714 | 1398 ft | 18 kts | 179° |
| 2026-04-26 08:21 | 47.46421 | 8.55736 | 1398 ft | 13 kts | 164° |
| 2026-04-26 08:21 | 47.46347 | 8.55799 | 1399 ft | 12 kts | 138° |
| 2026-04-26 08:21 | 47.46285 | 8.55891 | 1403 ft | 13 kts | 136° |
| 2026-04-26 08:21 | 47.46235 | 8.55959 | 1403 ft | 8 kts | 138° |
| 2026-04-26 08:22 | 47.46185 | 8.55999 | 1403 ft | 8 kts | 171° |
| 2026-04-26 08:22 | 47.46126 | 8.55995 | 1400 ft | 9 kts | 185° |
| 2026-04-26 08:22 | 47.46065 | 8.55987 | 1405 ft | 9 kts | 185° |
| 2026-04-26 08:22 | 47.46001 | 8.55976 | 1402 ft | 10 kts | 187° |
| 2026-04-26 08:23 | 47.45942 | 8.55912 | 1406 ft | 13 kts | 252° |
| 2026-04-26 08:23 | 47.45944 | 8.55801 | 1399 ft | 8 kts | 277° |
| 2026-04-26 08:23 | 47.45952 | 8.55747 | 1408 ft | 5 kts | 302° |
| 2026-04-26 08:23 | 47.45993 | 8.55731 | 1398 ft | 3 kts | 4° |
| 2026-04-26 08:24 | 47.46020 | 8.55734 | 1402 ft | 3 kts | 5° |
| 2026-04-26 08:24 | 47.46033 | 8.55736 | 1397 ft | 1 kts | 6° |
| 2026-04-26 08:24 | 47.46037 | 8.55737 | 1404 ft | 0 kts | 6° |